Ana Sayfa
METAR-TAF:

METAR-TAF

Havaalanları :

Portland International Jetport

Portland, Maine, Amerika Birleşik Devletleri

Enlem: 43-38-32N, Boylam: 070-18-16W, yükseklik: 22 m

Güncel hava durumu gözlemi

Rapor saat 23:51 UTC de 1 saat ve 8 dakika önce yapıldı.
Rüzgar batıdan 9 kt
Sıcaklık 5°C
Nem 56%
Basınç 1003 hPa
Görüş mesafesi: 16.1 km
Açık gökyüzü

METAR: KPWM 262351Z 26009KT 10SM CLR 05/M03 A2961 RMK AO2 SLP026 T00501028 10083 20044 51013

Saat: 19:59 (00:59 UTC)

Tahmin

Rapor saat 23:28 UTC de 1 saat ve 31 dakika önce yapıldı.
Ayın 27'si saat 00 UTC'den ayın 27'si saat 24 UTC'ye kadar geçerli Tahmin
Rüzgar batı/güneybatıdan 5 kt
Görüş mesafesi: 10 km
8000 ft yükseklikte parçalı bulutlu
Ayın 27'si saat 1500 UTC'den
Rüzgar batıdan 8 kt
Görüş mesafesi: 10 km
8000 ft yükseklikte parçalı çok bulutlu

TAF: KPWM 262328Z 2700/2724 25005KT P6SM SCT080 FM271500 28008KT P6SM BKN080

4.000'den fazla havaalanı için hava durumu gözlemleri ve tahminleri (METAR ve TAF raporları).

Kullanılabilir istasyonlar harita üzerinde sarı ve kırmızı noktalarla gösterilir.

İstasyonun adını görmek için fareyi noktanın üzerinde gezdirin.

Sonrasında hava gözlem ve tahminlerini görmek için tıklayın.

Haritayı değiştirmek için: yaklaştırmak için siyah artı işaretli yeşil düğmeye ve uzaklaştırmak için de eksi işaretli düğmeye hızla tıklayın; bitişik haritalar için yeşil okları kullanın.


METAR-TAF: